createdAt,value
2022-10-19T07:44:44.903Z,393.75
2022-10-19T07:45:45.391Z,405.00
2022-10-19T07:46:45.936Z,399.38
2022-10-19T07:47:46.427Z,393.75
2022-10-19T07:48:46.939Z,466.88
2022-10-19T07:49:48.007Z,421.88
2022-10-19T07:50:48.556Z,478.12
2022-10-19T07:51:49.103Z,1074.38
2022-10-19T07:52:49.656Z,1698.75
2022-10-19T07:53:50.190Z,1563.75
2022-10-19T07:54:51.030Z,1906.88
2022-10-19T07:55:51.613Z,2722.50
2022-10-19T07:56:52.165Z,2722.50
2022-10-19T07:57:52.709Z,2795.62
2022-10-19T07:58:53.268Z,2941.88
2022-10-19T07:59:53.885Z,2981.25
2022-10-19T08:00:54.480Z,3015.00
2022-10-19T08:01:55.124Z,3054.38
2022-10-19T08:03:19.248Z,3352.50
2022-10-19T08:04:43.298Z,3054.38
2022-10-19T08:05:02.013Z,3166.88
2022-10-19T08:05:59.225Z,3189.38
2022-10-19T08:06:59.242Z,2885.62
2022-10-19T08:07:59.758Z,2840.62
2022-10-19T08:09:00.799Z,3228.75
2022-10-19T08:10:01.339Z,3150.00
2022-10-19T08:11:01.771Z,3105.00
2022-10-19T08:12:02.751Z,3003.75
2022-10-19T08:13:03.270Z,2863.12
2022-10-19T08:14:03.856Z,2868.75
2022-10-19T08:15:04.345Z,2953.12
2022-10-19T08:16:04.825Z,3172.50
2022-10-19T08:17:05.834Z,2874.38
2022-10-19T08:18:06.334Z,3009.38
2022-10-19T08:19:06.878Z,3093.75
2022-10-19T08:20:07.384Z,2761.88
2022-10-19T08:21:07.966Z,2863.12
2022-10-19T08:22:08.405Z,2936.25
2022-10-19T08:23:08.911Z,3037.50
2022-10-19T08:24:09.458Z,3363.75
2022-10-19T08:25:10.024Z,3386.25
2022-10-19T08:26:10.540Z,3088.12
2022-10-19T08:27:11.060Z,2975.62
2022-10-19T08:28:11.571Z,3121.88
2022-10-19T08:29:12.104Z,3161.25
2022-10-19T08:30:12.624Z,3251.25
2022-10-19T08:31:13.024Z,3487.50
2022-10-19T08:32:14.000Z,3228.75
2022-10-19T08:33:14.922Z,2947.50
2022-10-19T08:34:15.933Z,3217.50
2022-10-19T08:35:16.373Z,3262.50
2022-10-19T08:36:17.302Z,3127.50
2022-10-19T08:37:26.242Z,2936.25
2022-10-19T08:38:20.188Z,3105.00
2022-10-19T08:39:19.617Z,3262.50
2022-10-19T08:40:20.688Z,3251.25
2022-10-19T08:41:21.162Z,3133.12
2022-10-19T08:42:23.102Z,3391.88
2022-10-19T08:43:23.153Z,3369.38
2022-10-19T08:44:23.676Z,3403.12
2022-10-19T08:45:24.153Z,3583.12
2022-10-19T08:46:25.172Z,3465.00
2022-10-19T08:47:25.699Z,3397.50
2022-10-19T08:48:26.216Z,3436.88
2022-10-19T08:49:26.714Z,3633.75
2022-10-19T08:50:27.276Z,3841.88
2022-10-19T08:51:27.751Z,3667.50
2022-10-19T08:52:33.438Z,3830.62
2022-10-19T08:53:30.635Z,3785.62
2022-10-19T08:54:30.169Z,3622.50
2022-10-19T08:55:31.118Z,3560.62
2022-10-19T08:56:49.945Z,3521.25
2022-10-19T08:57:33.816Z,3628.12
2022-10-19T08:58:33.383Z,3645.00
2022-10-19T08:59:34.023Z,3465.00
2022-10-19T09:00:34.712Z,3290.62
2022-10-19T09:01:37.594Z,3504.38
2022-10-19T09:02:36.100Z,3825.00
2022-10-19T09:03:55.403Z,3808.12
2022-10-19T09:04:38.419Z,3352.50
2022-10-19T09:05:38.473Z,3369.38
2022-10-19T09:06:38.910Z,3408.75
2022-10-19T09:07:39.831Z,3481.88
2022-10-19T09:08:40.842Z,3853.12
2022-10-19T09:09:41.818Z,3870.00
2022-10-19T09:10:42.357Z,3684.38
2022-10-19T09:11:42.857Z,3526.88
2022-10-19T09:14:44.891Z,3622.50
2022-10-19T09:16:00.361Z,3543.75
2022-10-19T09:20:23.257Z,3346.88
2022-10-19T09:21:20.690Z,3228.75
2022-10-19T09:22:21.629Z,3268.12
2022-10-19T09:23:22.653Z,3301.88
2022-10-19T09:24:46.490Z,3093.75
2022-10-19T09:25:23.953Z,3211.88
2022-10-19T09:26:24.509Z,3324.38
2022-10-19T09:27:24.985Z,3510.00
2022-10-19T09:28:31.424Z,3526.88
2022-10-19T09:29:27.815Z,3285.00
2022-10-19T09:30:27.350Z,3166.88
2022-10-19T09:31:31.502Z,3217.50
2022-10-19T09:32:28.747Z,3436.88
2022-10-19T09:33:29.269Z,3667.50
2022-10-19T09:34:29.775Z,3645.00
2022-10-19T09:35:30.205Z,3543.75
2022-10-19T09:36:49.346Z,3656.25
2022-10-19T09:37:33.175Z,3841.88
2022-10-19T09:38:32.684Z,4016.25
2022-10-19T09:39:33.204Z,4083.75
2022-10-19T09:40:33.708Z,4291.88
2022-10-19T09:41:34.264Z,4314.38
2022-10-19T09:42:35.166Z,4117.50
2022-10-19T09:43:35.761Z,3673.12
2022-10-19T09:44:36.296Z,3690.00
2022-10-19T09:45:36.789Z,3459.38
2022-10-19T09:46:38.915Z,3498.75
2022-10-19T09:47:39.277Z,3695.62
2022-10-19T09:48:38.979Z,3301.88
2022-10-19T09:49:39.515Z,3639.38
2022-10-19T09:50:40.057Z,3808.12
2022-10-19T09:51:40.605Z,3841.88
2022-10-19T09:52:41.127Z,3909.38
2022-10-19T09:53:44.731Z,4106.25
2022-10-19T09:54:45.324Z,3982.50
2022-10-19T09:56:04.780Z,3712.50
2022-10-19T09:56:56.213Z,3785.62
2022-10-19T09:57:44.836Z,3504.38
2022-10-19T09:58:45.290Z,3571.88
2022-10-19T09:59:45.890Z,3673.12
2022-10-19T10:01:05.416Z,3695.62
2022-10-19T10:01:47.619Z,3611.25
2022-10-19T10:02:48.320Z,4151.25
2022-10-19T10:03:52.434Z,3971.25
2022-10-19T10:04:50.673Z,3723.75
2022-10-19T10:05:50.206Z,3583.12
2022-10-19T10:06:50.717Z,3549.38
2022-10-19T10:07:51.299Z,3566.25
2022-10-19T10:08:51.880Z,3549.38
2022-10-19T10:09:52.358Z,3684.38
2022-10-19T10:10:53.076Z,3870.00
2022-10-19T10:12:54.584Z,3813.75
2022-10-19T10:13:55.126Z,3667.50
2022-10-19T10:14:55.598Z,3656.25
2022-10-19T10:15:56.119Z,3695.62
2022-10-19T10:16:56.648Z,3555.00
2022-10-19T10:17:57.241Z,3605.62
2022-10-19T10:18:58.504Z,3701.25
2022-10-19T10:19:58.535Z,3768.75
2022-10-19T10:20:59.085Z,3937.50
2022-10-19T10:21:59.613Z,3465.00
2022-10-19T10:23:00.164Z,3414.38
2022-10-19T10:24:00.730Z,3076.88
2022-10-19T10:25:01.369Z,3183.75
2022-10-19T10:26:01.878Z,3318.75
2022-10-19T10:27:03.426Z,3510.00
2022-10-19T10:28:03.375Z,3352.50
2022-10-19T10:29:03.856Z,3166.88
2022-10-19T10:30:04.401Z,3138.75
2022-10-19T10:31:04.907Z,3228.75
2022-10-19T10:32:05.439Z,3313.12
2022-10-19T10:33:13.283Z,3431.25
2022-10-19T10:34:22.510Z,3453.75
2022-10-19T10:35:08.755Z,3251.25
2022-10-19T10:36:08.167Z,3324.38
2022-10-19T10:37:09.185Z,3706.88
2022-10-19T10:38:09.769Z,3616.88
2022-10-19T10:39:10.297Z,3453.75
2022-10-19T10:40:10.797Z,3386.25
2022-10-19T10:41:11.237Z,3335.62
2022-10-19T10:42:12.270Z,3324.38
2022-10-19T10:43:12.991Z,3465.00
2022-10-19T10:44:13.503Z,3526.88
2022-10-19T10:45:13.907Z,3436.88
2022-10-19T10:46:15.639Z,3453.75
2022-10-19T10:47:15.673Z,3228.75
2022-10-19T10:48:16.124Z,3346.88
2022-10-19T10:49:17.133Z,3240.00
2022-10-19T10:50:17.706Z,3555.00
2022-10-19T10:51:18.148Z,3532.50
2022-10-19T10:52:18.648Z,3442.50
2022-10-19T10:53:19.210Z,3622.50
2022-10-19T10:54:19.842Z,3020.62
2022-10-19T10:55:20.345Z,3262.50
2022-10-19T10:56:20.889Z,2964.38
2022-10-19T10:58:25.554Z,2626.88
2022-10-19T10:59:24.267Z,2823.75
2022-10-19T11:00:23.730Z,3695.62
2022-10-19T11:01:24.781Z,3110.62
2022-10-19T11:03:26.193Z,3571.88
2022-10-19T11:04:27.213Z,3532.50
2022-10-19T11:05:27.738Z,3054.38
2022-10-19T11:06:28.179Z,3335.62
2022-10-19T11:07:29.207Z,2362.50
2022-10-19T11:08:35.157Z,3015.00
2022-10-19T11:09:30.354Z,3150.00
2022-10-19T11:10:31.384Z,3076.88
2022-10-19T11:11:31.884Z,3566.25
2022-10-19T11:12:35.068Z,3673.12
2022-10-19T11:13:33.340Z,3408.75
2022-10-19T11:14:33.879Z,3695.62
2022-10-19T11:15:34.457Z,3768.75
2022-10-19T11:16:35.063Z,3633.75
2022-10-19T11:17:35.882Z,3605.62
2022-10-19T11:18:36.176Z,3768.75
2022-10-19T11:19:36.605Z,3515.62
2022-10-19T11:20:37.618Z,3375.00
2022-10-19T11:21:38.057Z,3285.00
2022-10-19T11:22:39.200Z,3290.62
2022-10-19T11:23:39.711Z,3453.75
2022-10-19T11:24:41.878Z,3543.75
2022-10-19T11:25:40.867Z,3510.00
2022-10-19T11:26:41.519Z,3307.50
2022-10-19T11:27:41.963Z,3189.38
2022-10-19T11:28:42.597Z,3026.25
2022-10-19T11:29:43.035Z,2857.50
2022-10-19T11:30:45.319Z,2840.62
2022-10-19T11:31:44.220Z,3037.50
2022-10-19T11:32:46.019Z,2964.38
2022-10-19T11:33:45.711Z,2840.62
2022-10-19T11:34:46.250Z,2705.62
2022-10-19T11:35:46.767Z,2655.00
2022-10-19T11:36:47.281Z,2666.25
2022-10-19T11:37:50.319Z,2525.62
2022-10-19T11:38:49.682Z,2418.75
2022-10-19T11:39:49.176Z,2424.38
2022-10-19T11:41:06.115Z,2306.25
2022-10-19T11:41:51.568Z,2193.75
2022-10-19T11:42:51.091Z,2446.88
2022-10-19T11:43:51.617Z,2475.00
2022-10-19T11:44:52.131Z,2390.62
2022-10-19T11:45:52.659Z,2553.75
2022-10-19T11:46:53.067Z,2413.12
2022-10-19T11:47:54.025Z,2328.75
2022-10-19T11:48:55.147Z,2463.75
2022-10-19T11:49:55.722Z,2385.00
2022-10-19T11:51:04.100Z,2430.00
2022-10-19T11:51:58.148Z,2469.38
2022-10-19T11:52:57.702Z,2497.50
2022-10-19T11:53:58.277Z,2520.00
2022-10-19T11:54:58.827Z,2441.25
2022-10-19T11:55:59.390Z,2351.25
2022-10-19T11:57:06.385Z,2486.25
2022-10-19T11:58:01.831Z,2531.25
2022-10-19T11:59:01.524Z,2452.50
2022-10-19T12:00:13.665Z,2469.38
2022-10-19T12:01:03.898Z,2525.62
2022-10-19T12:02:03.982Z,2761.88
2022-10-19T12:03:04.578Z,2576.25
2022-10-19T12:04:05.019Z,1845.00
2022-10-19T12:05:05.568Z,2070.00
2022-10-19T12:06:06.037Z,2289.38
2022-10-19T12:07:07.047Z,2362.50
2022-10-19T12:08:07.653Z,1918.12
2022-10-19T12:09:08.187Z,1828.12
2022-10-19T12:10:08.718Z,1721.25
2022-10-19T12:11:09.188Z,1822.50
2022-10-19T12:12:10.256Z,1676.25
2022-10-19T12:13:10.796Z,1558.12
2022-10-19T12:14:11.439Z,1535.62
2022-10-19T12:15:11.990Z,1535.62
2022-10-19T12:16:12.500Z,1395.00
2022-10-19T12:18:13.564Z,1507.50
2022-10-19T12:19:14.149Z,1625.62
2022-10-19T12:20:17.468Z,1681.88
2022-10-19T12:21:16.606Z,1805.62
2022-10-19T12:22:16.216Z,1614.38
2022-10-19T12:23:16.741Z,1856.25
2022-10-19T12:24:17.359Z,1681.88
2022-10-19T12:25:17.897Z,1715.62
2022-10-19T12:27:19.427Z,1721.25
2022-10-19T12:28:20.007Z,1648.12
2022-10-19T12:29:20.643Z,1631.25
2022-10-19T12:30:21.191Z,1507.50
2022-10-19T12:31:21.713Z,1490.62
2022-10-19T12:32:22.518Z,1473.75
2022-10-19T12:33:23.004Z,1423.12
2022-10-19T12:34:23.587Z,1400.62
2022-10-19T12:35:24.123Z,1395.00
2022-10-19T12:36:24.682Z,1423.12
2022-10-19T12:37:25.246Z,1411.88
2022-10-19T12:38:25.845Z,1378.12
2022-10-19T12:39:26.448Z,1372.50
2022-10-19T12:40:27.010Z,1372.50
2022-10-19T12:41:27.566Z,1333.12
2022-10-19T12:42:28.119Z,1293.75
2022-10-19T12:43:28.691Z,1327.50
2022-10-19T12:44:29.303Z,1440.00
2022-10-19T12:45:29.863Z,1490.62
2022-10-19T12:46:30.441Z,1603.12
2022-10-19T12:47:30.971Z,1541.25
2022-10-19T12:48:31.569Z,1726.88
2022-10-19T12:49:32.162Z,1631.25
2022-10-19T12:50:35.024Z,1704.38
2022-10-19T12:51:34.611Z,1687.50
2022-10-19T12:52:34.556Z,1676.25
2022-10-19T12:53:34.745Z,1760.62
2022-10-19T12:54:35.366Z,1766.25
2022-10-19T12:55:36.038Z,1816.88
2022-10-19T12:56:36.529Z,1906.88
2022-10-19T12:57:37.457Z,1963.12
2022-10-19T12:58:37.650Z,2047.50
2022-10-19T12:59:38.266Z,2115.00
2022-10-19T13:00:39.069Z,2075.62
2022-10-19T13:01:39.600Z,2115.00
2022-10-19T13:02:40.132Z,2182.50
2022-10-19T13:03:40.696Z,2160.00
2022-10-19T13:04:41.311Z,2064.38
2022-10-19T13:05:41.850Z,2165.62
2022-10-19T13:06:42.399Z,2323.12
2022-10-19T13:07:42.980Z,2261.25
2022-10-19T13:08:43.557Z,2137.50
2022-10-19T13:09:44.170Z,2008.12
2022-10-19T13:10:44.694Z,1895.62
2022-10-19T13:11:45.249Z,1822.50
2022-10-19T13:12:45.842Z,1749.38
2022-10-19T13:13:46.421Z,1687.50
2022-10-19T13:14:47.021Z,1698.75
2022-10-19T13:15:47.586Z,1710.00
2022-10-19T13:16:48.122Z,1653.75
2022-10-19T13:17:48.685Z,1591.88
2022-10-19T13:18:49.263Z,1636.88
2022-10-19T13:19:49.979Z,1625.62
2022-10-19T13:20:50.481Z,1608.75
2022-10-19T13:21:51.103Z,1631.25
2022-10-19T13:22:51.643Z,1518.75
2022-10-19T13:23:52.225Z,1473.75
2022-10-19T13:24:52.817Z,1575.00
2022-10-19T13:25:53.372Z,1507.50
2022-10-19T13:26:53.905Z,1327.50
2022-10-19T13:27:54.453Z,1417.50
2022-10-19T13:28:54.996Z,1170.00
2022-10-19T13:29:55.628Z,1186.88
2022-10-19T13:31:03.250Z,1299.38
2022-10-19T13:31:57.935Z,1366.88
2022-10-19T13:32:57.508Z,1338.75
2022-10-19T13:33:58.125Z,1265.62
2022-10-19T13:34:58.656Z,1260.00
2022-10-19T13:35:59.199Z,1406.25
2022-10-19T13:36:59.757Z,1305.00
2022-10-19T13:38:00.320Z,1310.62
2022-10-19T13:39:00.875Z,1440.00
2022-10-19T13:40:01.469Z,1378.12
2022-10-19T13:41:02.037Z,1350.00
2022-10-19T13:42:02.586Z,1260.00
2022-10-19T13:43:03.146Z,1209.38
2022-10-19T13:44:03.690Z,1243.12
2022-10-19T13:45:04.185Z,1243.12
2022-10-19T13:46:04.634Z,1136.25
2022-10-19T13:47:05.742Z,1158.75
2022-10-19T13:48:06.140Z,1282.50
2022-10-19T13:49:07.307Z,1282.50
2022-10-19T13:50:07.835Z,1237.50
2022-10-19T13:51:08.330Z,1355.62
2022-10-19T13:52:09.348Z,1552.50
2022-10-19T13:53:09.926Z,1501.88
2022-10-19T13:54:10.497Z,1468.12
2022-10-19T13:55:11.111Z,1411.88
2022-10-19T13:56:11.578Z,1327.50
2022-10-19T13:57:12.624Z,1293.75
2022-10-19T13:58:13.200Z,1164.38
2022-10-19T13:59:13.883Z,1040.62
2022-10-19T14:00:14.757Z,939.38
2022-10-19T14:01:16.400Z,922.50
2022-10-19T14:02:16.020Z,905.62
2022-10-19T14:03:16.532Z,849.38
2022-10-19T14:04:17.086Z,826.88
2022-10-19T14:05:17.660Z,804.38
2022-10-19T14:08:07.381Z,736.88
2022-10-19T14:09:07.941Z,697.50
2022-10-19T14:10:08.414Z,663.75
2022-10-19T14:11:08.921Z,646.88
2022-10-19T14:12:09.453Z,618.75
2022-10-19T14:13:10.019Z,613.12
2022-10-19T14:14:10.548Z,596.25
2022-10-19T14:15:11.112Z,590.62
2022-10-19T14:16:11.647Z,556.88
2022-10-19T14:17:12.248Z,528.75
2022-10-19T14:18:19.215Z,534.38
2022-10-19T14:19:14.459Z,500.62
2022-10-19T14:20:14.488Z,489.38
2022-10-19T14:21:15.007Z,466.88
2022-10-19T14:22:15.569Z,472.50
2022-10-19T14:23:16.126Z,427.50
2022-10-19T14:24:16.705Z,438.75
2022-10-19T14:25:17.244Z,438.75
2022-10-19T14:26:17.839Z,461.25
2022-10-19T14:27:18.385Z,455.62
2022-10-19T14:28:18.802Z,450.00
2022-10-19T14:29:19.879Z,427.50
2022-10-19T14:30:20.428Z,410.62
2022-10-19T14:31:20.950Z,410.62
2022-10-19T14:32:21.506Z,393.75
2022-10-19T14:33:22.027Z,399.38
2022-10-19T14:34:22.481Z,376.88
2022-10-19T14:35:23.528Z,365.62
2022-10-19T14:36:24.109Z,365.62
2022-10-19T14:37:24.637Z,360.00
2022-10-19T14:38:25.639Z,354.38
2022-10-19T14:39:26.189Z,354.38
2022-10-19T14:40:28.029Z,360.00
2022-10-19T14:41:27.414Z,371.25
2022-10-19T14:42:27.917Z,365.62
2022-10-19T14:43:28.500Z,360.00
